createdAt,value
2022-10-14T00:01:31.180Z,886
2022-10-14T00:03:14.570Z,885.6
2022-10-14T00:04:58.009Z,885.7
2022-10-14T00:10:07.287Z,879
2022-10-14T00:11:50.605Z,877.7
2022-10-14T00:13:34.030Z,877.8
2022-10-14T00:15:17.382Z,876.4
2022-10-14T00:17:00.816Z,876.1
2022-10-14T00:18:44.231Z,876.7
2022-10-14T00:20:27.589Z,873.4
2022-10-14T00:22:10.987Z,873.8
2022-10-14T00:25:37.527Z,869.8
2022-10-14T00:27:20.910Z,869.4
2022-10-14T00:29:04.291Z,871.2
2022-10-14T00:30:47.701Z,872.6
2022-10-14T00:32:31.042Z,874.1
2022-10-14T00:34:14.476Z,874.5
2022-10-14T00:35:57.834Z,873.6
2022-10-14T00:37:41.227Z,874.7
2022-10-14T00:41:07.806Z,871.5
2022-10-14T00:42:51.125Z,871.8
2022-10-14T00:44:34.506Z,870.6
2022-10-14T00:46:17.878Z,868.1
2022-10-14T00:48:01.290Z,867.1
2022-10-14T00:49:44.711Z,865.7
2022-10-14T00:51:28.072Z,866.5
2022-10-14T00:53:11.472Z,865.4
2022-10-14T00:54:55.202Z,864.7
2022-10-14T00:56:38.591Z,864
2022-10-14T00:58:22.021Z,861.2
2022-10-14T01:00:05.361Z,856.7
2022-10-14T01:01:48.792Z,854.7
2022-10-14T01:03:32.160Z,855.4
2022-10-14T01:05:15.563Z,854.1
2022-10-14T01:06:58.998Z,854
2022-10-14T01:10:25.423Z,850.3
2022-10-14T01:12:08.841Z,847.1
2022-10-14T01:13:52.220Z,849.4
2022-10-14T01:15:35.622Z,852.8
2022-10-14T01:17:19.072Z,852.3
2022-10-14T01:19:02.386Z,852.5
2022-10-14T01:20:45.807Z,850.2
2022-10-14T01:25:55.050Z,851.3
2022-10-14T01:27:38.534Z,849.6
2022-10-14T01:29:21.819Z,846.7
2022-10-14T01:31:05.249Z,844.6
2022-10-14T01:32:48.670Z,843.6
2022-10-14T01:34:32.027Z,841.6
2022-10-14T01:36:15.496Z,839.5
2022-10-14T01:41:24.697Z,838.5
2022-10-14T01:43:08.137Z,835.7
2022-10-14T01:44:51.457Z,836.1
2022-10-14T01:46:34.829Z,833.7
2022-10-14T01:48:18.237Z,832.6
2022-10-14T01:50:01.686Z,835.4
2022-10-14T01:51:45.022Z,838.3
2022-10-14T01:56:54.275Z,834.7
2022-10-14T01:58:37.670Z,835.5
2022-10-14T02:00:21.100Z,840.7
2022-10-14T02:02:04.467Z,845.3
2022-10-14T02:03:47.864Z,845
2022-10-14T02:05:31.403Z,842.6
2022-10-14T02:07:14.736Z,843.5
2022-10-14T02:12:23.887Z,842.2
2022-10-14T02:14:07.307Z,836.4
2022-10-14T02:15:50.704Z,834.6
2022-10-14T02:17:34.101Z,833.1
2022-10-14T02:19:17.514Z,830
2022-10-14T02:21:00.877Z,830.5
2022-10-14T02:22:44.283Z,829.7
2022-10-14T02:27:53.542Z,824.6
2022-10-14T02:29:36.954Z,821.1
2022-10-14T02:31:20.289Z,821.6
2022-10-14T02:33:03.765Z,820.1
2022-10-14T02:34:47.098Z,821.3
2022-10-14T02:36:30.483Z,819.1
2022-10-14T02:38:13.965Z,818.5
2022-10-14T02:43:23.179Z,824.2
2022-10-14T02:45:06.571Z,823.7
2022-10-14T02:46:49.922Z,821.4
2022-10-14T02:48:33.370Z,822.6
2022-10-14T02:50:16.718Z,823.2
2022-10-14T02:52:00.129Z,820.7
2022-10-14T02:55:26.895Z,822
2022-10-14T02:57:10.594Z,821.7
2022-10-14T02:58:54.012Z,815.7
2022-10-14T03:00:37.384Z,812.7
2022-10-14T03:02:20.785Z,810
2022-10-14T03:04:04.237Z,807.6
2022-10-14T03:05:47.617Z,806.7
2022-10-14T03:07:30.978Z,808.6
2022-10-14T03:09:14.428Z,807.4
2022-10-14T03:12:40.936Z,807.6
2022-10-14T03:14:24.268Z,803.4
2022-10-14T03:16:07.634Z,799.4
2022-10-14T03:17:51.043Z,797.4
2022-10-14T03:19:34.462Z,797.5
2022-10-14T03:21:17.830Z,795.2
2022-10-14T03:23:01.266Z,791.3
2022-10-14T03:24:44.667Z,791.3
2022-10-14T03:28:11.088Z,790.1
2022-10-14T03:29:54.514Z,787.3
2022-10-14T03:31:37.892Z,787.1
2022-10-14T03:33:21.287Z,785.8
2022-10-14T03:35:04.823Z,787.6
2022-10-14T03:36:48.074Z,788.2
2022-10-14T03:38:31.475Z,786.7
2022-10-14T03:40:14.916Z,787.1
2022-10-14T03:43:41.374Z,784.9
2022-10-14T03:45:24.759Z,784.6
2022-10-14T03:47:08.120Z,787.1
2022-10-14T03:48:51.530Z,785
2022-10-14T03:50:34.961Z,784.4
2022-10-14T03:52:18.317Z,785.3
2022-10-14T03:54:01.719Z,782.2
2022-10-14T03:59:10.965Z,789.3
2022-10-14T04:00:54.428Z,787.6
2022-10-14T04:02:37.797Z,786.5
2022-10-14T04:04:21.184Z,783.6
2022-10-14T04:06:04.556Z,785
2022-10-14T04:07:47.938Z,785.3
2022-10-14T04:09:31.364Z,787.6
2022-10-14T04:14:40.610Z,783
2022-10-14T04:16:23.981Z,781.2
2022-10-14T04:18:07.382Z,782.6
2022-10-14T04:19:50.827Z,782.4
2022-10-14T04:21:34.190Z,779.2
2022-10-14T04:23:17.570Z,778.1
2022-10-14T04:25:01.044Z,777.3
2022-10-14T04:30:10.267Z,777.6
2022-10-14T04:31:53.580Z,774.7
2022-10-14T04:33:37.028Z,773.1
2022-10-14T04:35:20.395Z,768.5
2022-10-14T04:37:03.804Z,769.3
2022-10-14T04:38:47.272Z,772.6
2022-10-14T04:40:30.565Z,775.8
2022-10-14T04:45:39.848Z,777.5
2022-10-14T04:47:23.221Z,779.2
2022-10-14T04:49:06.717Z,777.4
2022-10-14T04:50:50.043Z,773.4
2022-10-14T04:52:33.426Z,770.5
2022-10-14T04:54:16.783Z,769.8
2022-10-14T04:56:00.198Z,767.8
2022-10-14T05:01:09.440Z,761.5
2022-10-14T05:02:52.874Z,760.1
2022-10-14T05:04:36.227Z,759.6
2022-10-14T05:06:19.690Z,758.8
2022-10-14T05:08:03.007Z,758.4
2022-10-14T05:09:46.429Z,757.6
2022-10-14T05:11:29.837Z,759
2022-10-14T05:13:13.229Z,758.3
2022-10-14T05:14:56.985Z,754.5
2022-10-14T05:16:40.299Z,753.8
2022-10-14T05:18:23.729Z,755
2022-10-14T05:20:07.133Z,754.3
2022-10-14T05:21:50.489Z,752.7
2022-10-14T05:23:33.923Z,751.6
2022-10-14T05:25:17.317Z,750.8
2022-10-14T05:27:00.681Z,745.4
2022-10-14T05:30:27.241Z,747.3
2022-10-14T05:32:10.645Z,747
2022-10-14T05:33:54.049Z,748.5
2022-10-14T05:35:37.346Z,749.3
2022-10-14T05:37:20.734Z,748.2
2022-10-14T05:39:04.169Z,747.8
2022-10-14T05:40:47.585Z,746.3
2022-10-14T05:42:30.966Z,745.5
2022-10-14T05:44:14.627Z,744.9
2022-10-14T05:45:58.085Z,743.6
2022-10-14T05:47:41.429Z,742.6
2022-10-14T05:49:24.831Z,741.1
2022-10-14T05:51:08.282Z,738
2022-10-14T05:52:51.608Z,736.6
2022-10-14T05:54:35.081Z,737
2022-10-14T05:56:18.465Z,735.2
2022-10-14T05:58:02.138Z,733
2022-10-14T05:59:45.495Z,731.6
2022-10-14T06:01:28.920Z,730.4
2022-10-14T06:03:12.376Z,731.3
2022-10-14T06:04:55.719Z,731.3
2022-10-14T06:06:39.193Z,730.3
2022-10-14T06:08:22.545Z,729.6
2022-10-14T06:10:05.894Z,731
2022-10-14T06:11:49.600Z,728.7
2022-10-14T06:13:32.996Z,726.7
2022-10-14T06:15:16.424Z,726.1
2022-10-14T06:16:59.777Z,727.6
2022-10-14T06:18:43.194Z,725.1
2022-10-14T06:20:26.625Z,728.3
2022-10-14T06:22:10.056Z,743.1
2022-10-14T06:23:53.399Z,752.7
2022-10-14T06:25:37.071Z,761.6
2022-10-14T06:27:20.515Z,784.3
2022-10-14T06:29:03.874Z,806.5
2022-10-14T06:30:47.276Z,805.6
2022-10-14T06:32:30.719Z,800.7
2022-10-14T06:34:14.071Z,797.7
2022-10-14T06:35:57.503Z,799.1
2022-10-14T06:37:40.824Z,811
2022-10-14T06:39:24.538Z,827.8
2022-10-14T06:41:07.979Z,845.8
2022-10-14T06:42:51.393Z,862.3
2022-10-14T06:44:34.755Z,882.8
2022-10-14T06:46:18.194Z,900.8
2022-10-14T06:48:01.560Z,907.1
2022-10-14T06:49:44.912Z,912.1
2022-10-14T06:51:28.347Z,919.3
2022-10-14T06:53:12.022Z,920.6
2022-10-14T06:54:55.447Z,919.1
2022-10-14T06:56:38.817Z,914.7
2022-10-14T06:58:22.223Z,912.6
2022-10-14T07:00:05.645Z,914
2022-10-14T07:01:49.020Z,920.6
2022-10-14T07:03:32.428Z,921.6
2022-10-14T07:05:15.847Z,922.7
2022-10-14T07:06:59.538Z,925.6
2022-10-14T07:08:42.883Z,927
2022-10-14T07:10:26.291Z,932.8
2022-10-14T07:12:09.812Z,941.2
2022-10-14T07:13:53.181Z,953.6
2022-10-14T07:15:36.498Z,967.3
2022-10-14T07:17:19.920Z,968.6
2022-10-14T07:22:29.170Z,954.7
2022-10-14T07:24:12.503Z,951.8
2022-10-14T07:25:55.959Z,948.3
2022-10-14T07:27:39.326Z,952.7
2022-10-14T07:29:22.727Z,957
2022-10-14T07:31:06.078Z,960.4
2022-10-14T07:32:49.489Z,959.2
2022-10-14T07:36:15.980Z,954.9
2022-10-14T07:37:59.385Z,958.7
2022-10-14T07:39:42.748Z,958.5
2022-10-14T07:41:26.213Z,954.5
2022-10-14T07:43:09.545Z,951.5
2022-10-14T07:44:52.947Z,949.7
2022-10-14T07:46:36.337Z,946.8
2022-10-14T07:48:19.735Z,938.7
2022-10-14T07:50:03.533Z,937.6
2022-10-14T07:51:46.837Z,933.3
2022-10-14T07:53:30.275Z,928.5
2022-10-14T07:55:13.650Z,924
2022-10-14T07:56:57.041Z,921.3
2022-10-14T07:58:40.404Z,916.1
2022-10-14T08:00:23.804Z,915.1
2022-10-14T08:02:07.241Z,908.4
2022-10-14T08:05:33.765Z,898.8
2022-10-14T08:07:17.205Z,892.6
2022-10-14T08:09:00.667Z,889
2022-10-14T08:10:43.974Z,886.3
2022-10-14T08:12:27.393Z,885.2
2022-10-14T08:14:10.771Z,886.3
2022-10-14T08:15:54.093Z,883.7
2022-10-14T08:21:03.380Z,875.3
2022-10-14T08:22:46.791Z,873.6
2022-10-14T08:24:30.105Z,870.4
2022-10-14T08:26:13.488Z,869.7
2022-10-14T08:27:56.993Z,871.6
2022-10-14T08:29:40.354Z,870.6
2022-10-14T08:31:23.690Z,867.6
2022-10-14T08:34:50.156Z,867.7
2022-10-14T08:36:33.545Z,865.4
2022-10-14T08:38:17.006Z,862
2022-10-14T08:40:00.337Z,859.7
2022-10-14T08:41:43.752Z,860.5
2022-10-14T08:43:27.181Z,860
2022-10-14T08:45:10.579Z,856.6
2022-10-14T08:48:37.039Z,850.9
2022-10-14T08:50:20.378Z,847.3
2022-10-14T08:52:03.825Z,844.1
2022-10-14T08:53:47.228Z,843.3
2022-10-14T08:55:30.614Z,844.4
2022-10-14T08:57:14.015Z,843.4
2022-10-14T08:58:57.442Z,839.3
2022-10-14T09:00:40.831Z,840.6
2022-10-14T09:02:24.485Z,847
2022-10-14T09:04:07.935Z,850.2
2022-10-14T09:05:51.326Z,854.6
2022-10-14T09:07:34.752Z,861.4
2022-10-14T09:09:18.088Z,866.7
2022-10-14T09:11:01.536Z,877.5
2022-10-14T09:12:44.900Z,883.3
2022-10-14T09:17:54.095Z,889
2022-10-14T09:19:37.585Z,892.7
2022-10-14T09:21:20.878Z,901.2
2022-10-14T09:23:04.283Z,910
2022-10-14T09:24:47.745Z,913.7
2022-10-14T09:26:31.085Z,917
2022-10-14T09:28:14.534Z,914.8
2022-10-14T09:29:57.913Z,918.3
2022-10-14T09:31:41.602Z,921.9
2022-10-14T09:33:24.954Z,929.2
2022-10-14T09:35:08.385Z,934.6
2022-10-14T09:36:51.811Z,940.4
2022-10-14T09:38:35.158Z,945.8
2022-10-14T09:40:18.573Z,946.7
2022-10-14T09:42:02.004Z,945.8
2022-10-14T09:43:45.331Z,946
2022-10-14T09:47:12.041Z,948
2022-10-14T09:48:55.316Z,942.7
2022-10-14T09:50:38.684Z,934.6
2022-10-14T09:52:21.995Z,927.7
2022-10-14T09:54:05.392Z,929.5
2022-10-14T09:55:48.811Z,938.5
2022-10-14T09:57:32.175Z,953.4
2022-10-14T09:59:15.574Z,955
2022-10-14T10:00:59.278Z,957.6
2022-10-14T10:02:42.698Z,960
2022-10-14T10:04:26.137Z,960.2
2022-10-14T10:06:09.477Z,961
2022-10-14T10:07:52.901Z,958.5
2022-10-14T10:09:36.314Z,954.4
2022-10-14T10:11:19.675Z,949.3
2022-10-14T10:13:03.125Z,948.7
2022-10-14T10:16:29.553Z,950.1
2022-10-14T10:18:12.942Z,955.8
2022-10-14T10:19:56.343Z,970.4
2022-10-14T10:21:39.708Z,982.2
2022-10-14T10:23:23.150Z,979.4
2022-10-14T10:25:06.563Z,976.6
2022-10-14T10:26:49.911Z,969.5
2022-10-14T10:31:59.147Z,957.5
2022-10-14T10:33:42.590Z,962.1
2022-10-14T10:35:25.994Z,962.4
2022-10-14T10:37:09.455Z,960.4
2022-10-14T10:38:52.722Z,958.4
2022-10-14T10:40:36.122Z,957.6
2022-10-14T10:42:19.553Z,955.3
2022-10-14T10:47:28.793Z,952.8
2022-10-14T10:49:12.188Z,947.2
2022-10-14T10:50:55.622Z,945.6
2022-10-14T10:52:39.005Z,947
2022-10-14T10:54:22.338Z,949.6
2022-10-14T10:56:05.788Z,951.1
2022-10-14T10:57:49.131Z,951.8
2022-10-14T11:01:15.613Z,958.1
2022-10-14T11:02:59.097Z,963
2022-10-14T11:04:42.461Z,976.8
2022-10-14T11:06:25.804Z,991.5
2022-10-14T11:08:09.244Z,1005.8
2022-10-14T11:09:52.623Z,1010.2
2022-10-14T11:11:36.008Z,1015.7
2022-10-14T11:16:45.289Z,1041.5
2022-10-14T11:18:28.636Z,1046.1
2022-10-14T11:20:12.017Z,1044.2
2022-10-14T11:21:55.553Z,1051.8
2022-10-14T11:23:38.817Z,1074.6
2022-10-14T11:25:22.217Z,1092.5
2022-10-14T11:27:05.681Z,1086.4
2022-10-14T11:32:14.896Z,1087.6
2022-10-14T11:33:58.251Z,1092.6
2022-10-14T11:35:41.665Z,1096
2022-10-14T11:37:25.094Z,1100.6
2022-10-14T11:39:08.448Z,1099.3
2022-10-14T11:40:51.883Z,1097
2022-10-14T11:42:35.262Z,1092.3
2022-10-14T11:47:44.466Z,1098.3
2022-10-14T11:49:27.871Z,1093.6
2022-10-14T11:52:54.651Z,1111.1
2022-10-14T11:54:38.067Z,1118
2022-10-14T11:56:21.443Z,1135.1
2022-10-14T11:58:04.832Z,1147.3
2022-10-14T11:59:48.269Z,1153.1
2022-10-14T12:01:31.958Z,1158.1
2022-10-14T12:03:15.341Z,1156.8
2022-10-14T12:04:58.723Z,1156.2
2022-10-14T12:06:42.173Z,1161.4
2022-10-14T12:08:25.531Z,1165.1
2022-10-14T12:10:08.928Z,1165.7
2022-10-14T12:11:52.359Z,1164.1
2022-10-14T12:13:35.704Z,1161.3
2022-10-14T12:17:02.203Z,1167.3
2022-10-14T12:18:45.577Z,1167
2022-10-14T12:20:28.983Z,1171.4
2022-10-14T12:22:12.524Z,1174.7
2022-10-14T12:23:55.777Z,1176.2
2022-10-14T12:25:39.208Z,1181.2
2022-10-14T12:27:22.604Z,1182.7
2022-10-14T12:29:06.042Z,1187.8
2022-10-14T12:30:49.654Z,1196.2
2022-10-14T12:32:33.111Z,1199.6
2022-10-14T12:34:16.537Z,1202.4
2022-10-14T12:35:59.858Z,1205.7
2022-10-14T12:37:43.278Z,1208.1
2022-10-14T12:39:26.690Z,1209.4
2022-10-14T12:41:10.167Z,1209
2022-10-14T12:42:53.551Z,1210
2022-10-14T12:44:37.149Z,1211.1
2022-10-14T12:46:20.643Z,1211.1
2022-10-14T12:48:03.953Z,1211.7
2022-10-14T12:49:47.599Z,1212.1
2022-10-14T12:51:30.775Z,1216.6
2022-10-14T12:53:14.126Z,1219.6
2022-10-14T12:54:57.547Z,1220.5
2022-10-14T12:58:23.980Z,1225.8
2022-10-14T13:00:07.389Z,1232.3
2022-10-14T13:01:50.856Z,1234
2022-10-14T13:03:34.173Z,1235
2022-10-14T13:05:17.609Z,1237.5
2022-10-14T13:07:01.036Z,1243.3
2022-10-14T13:08:44.384Z,1250.8
2022-10-14T13:10:27.779Z,1257.2
2022-10-14T13:12:11.461Z,1261.5
2022-10-14T13:13:54.927Z,1268.4
2022-10-14T13:15:38.259Z,1273
2022-10-14T13:17:21.824Z,1280.6
2022-10-14T13:19:05.231Z,1285.8
2022-10-14T13:20:48.570Z,1291.2
2022-10-14T13:22:31.991Z,1297
2022-10-14T13:24:15.346Z,1303.3
2022-10-14T13:25:59.130Z,1308.4
2022-10-14T13:27:42.481Z,1314.6
2022-10-14T13:29:25.751Z,1323.6
2022-10-14T13:31:09.251Z,1329.3
2022-10-14T13:32:52.671Z,1333.2
2022-10-14T13:34:36.081Z,1335.7
2022-10-14T13:36:19.444Z,1335.8
2022-10-14T13:39:45.827Z,1349
2022-10-14T13:41:29.208Z,1349
2022-10-14T13:43:12.725Z,1351
2022-10-14T13:44:56.132Z,1350.7
2022-10-14T13:46:39.515Z,1350.2
2022-10-14T13:48:22.930Z,1357.4
2022-10-14T13:50:06.365Z,1354.3
2022-10-14T13:55:15.496Z,1349.6
2022-10-14T13:56:58.834Z,1351
2022-10-14T13:58:42.204Z,1347.2
2022-10-14T14:00:25.773Z,1334.1
2022-10-14T14:02:09.097Z,1329.5
2022-10-14T14:03:52.409Z,1324.6
2022-10-14T14:05:35.943Z,1317.8
2022-10-14T14:09:02.256Z,1313.8
2022-10-14T14:10:45.711Z,1316.3
2022-10-14T14:12:29.077Z,1317.4
2022-10-14T14:14:12.454Z,1325
2022-10-14T14:15:55.826Z,1332.5
2022-10-14T14:17:39.313Z,1346.4
2022-10-14T14:19:22.785Z,1339.6
2022-10-14T14:22:49.116Z,1361.7
2022-10-14T14:24:32.525Z,1370.8
2022-10-14T14:26:15.934Z,1378.4
2022-10-14T14:27:59.303Z,1384.6
2022-10-14T14:29:42.693Z,1393.8
2022-10-14T14:31:26.143Z,1398.4
2022-10-14T14:33:09.493Z,1405.8
2022-10-14T14:38:18.720Z,1412.2
2022-10-14T14:40:02.147Z,1411.5
2022-10-14T14:41:45.517Z,1411.3
2022-10-14T14:43:28.922Z,1410.1
2022-10-14T14:45:12.350Z,1410.7
2022-10-14T14:46:55.701Z,1416.1
2022-10-14T14:48:39.108Z,1421.5
2022-10-14T14:52:05.627Z,1427.8
2022-10-14T14:53:48.996Z,1427.6
2022-10-14T14:55:32.392Z,1431.3
2022-10-14T14:57:15.776Z,1432.3
2022-10-14T14:58:59.155Z,1432.1
2022-10-14T15:00:42.609Z,1426
2022-10-14T15:02:25.959Z,1422.8
2022-10-14T15:07:35.203Z,1416.6
2022-10-14T15:09:18.601Z,1414.8
2022-10-14T15:11:02.050Z,1413.7
2022-10-14T15:12:45.377Z,1417.5
2022-10-14T15:14:28.797Z,1414.4
2022-10-14T15:16:12.254Z,1409.8
2022-10-14T15:17:55.574Z,1406
2022-10-14T15:21:22.080Z,1407.4
2022-10-14T15:23:05.441Z,1409.7
2022-10-14T15:24:48.842Z,1409.6
2022-10-14T15:26:32.219Z,1411.7
2022-10-14T15:28:15.631Z,1410.6
2022-10-14T15:29:59.047Z,1411.4
2022-10-14T15:31:42.414Z,1409.7
2022-10-14T15:33:25.823Z,1409.5
2022-10-14T15:36:52.334Z,1408.4
2022-10-14T15:38:35.677Z,1405.4
2022-10-14T15:40:19.096Z,1402.3
2022-10-14T15:42:02.534Z,1404.4
2022-10-14T15:43:45.864Z,1407.8
2022-10-14T15:45:29.318Z,1410.6
2022-10-14T15:47:12.674Z,1412.8
2022-10-14T15:52:21.906Z,1428.2
2022-10-14T15:54:05.302Z,1419
2022-10-14T15:55:48.739Z,1412.3
2022-10-14T15:57:32.105Z,1403.4
2022-10-14T15:59:15.503Z,1396.1
2022-10-14T16:00:58.885Z,1392.7
2022-10-14T16:02:42.291Z,1387.8
2022-10-14T16:07:51.542Z,1375.6
2022-10-14T16:09:34.970Z,1375.2
2022-10-14T16:11:18.390Z,1376.1
2022-10-14T16:13:01.719Z,1371.6
2022-10-14T16:14:45.147Z,1369.2
2022-10-14T16:16:28.514Z,1369.5
2022-10-14T16:18:11.911Z,1369.2
2022-10-14T16:19:55.355Z,1366.7
2022-10-14T16:21:39.032Z,1367.8
2022-10-14T16:23:22.425Z,1371.1
2022-10-14T16:25:05.802Z,1372.4
2022-10-14T16:26:49.236Z,1371.1
2022-10-14T16:28:32.584Z,1370.6
2022-10-14T16:30:16.001Z,1367.6
2022-10-14T16:31:59.446Z,1367.1
2022-10-14T16:37:08.677Z,1358.9
2022-10-14T16:38:52.033Z,1363.1
2022-10-14T16:40:35.446Z,1363.7
2022-10-14T16:42:18.813Z,1364.3
2022-10-14T16:44:02.217Z,1369.8
2022-10-14T16:45:45.645Z,1370.2
2022-10-14T16:47:29.003Z,1369.7
2022-10-14T16:50:55.489Z,1367.2
2022-10-14T16:52:38.930Z,1367
2022-10-14T16:54:22.264Z,1370.2
2022-10-14T16:56:05.693Z,1372.6
2022-10-14T16:57:49.061Z,1375.2
2022-10-14T16:59:32.455Z,1376.3
2022-10-14T17:01:15.897Z,1375.8
2022-10-14T17:02:59.248Z,1374.5
2022-10-14T17:04:43.015Z,1373.2
2022-10-14T17:06:26.350Z,1373.2
2022-10-14T17:08:09.777Z,1367.1
2022-10-14T17:09:53.135Z,1362
2022-10-14T17:11:36.537Z,1361.7
2022-10-14T17:13:19.981Z,1365.2
2022-10-14T17:16:46.751Z,1367.2
2022-10-14T17:20:13.263Z,1373
2022-10-14T17:21:56.588Z,1372.5
2022-10-14T17:23:40.023Z,1371
2022-10-14T17:25:23.391Z,1367.7
2022-10-14T17:27:06.782Z,1366.7
2022-10-14T17:28:50.232Z,1366.2
2022-10-14T17:30:33.623Z,1366.5
2022-10-14T17:32:17.001Z,1367.8
2022-10-14T17:34:00.681Z,1366.7
2022-10-14T17:35:44.114Z,1358
2022-10-14T17:37:27.468Z,1352.1
2022-10-14T17:39:10.885Z,1348.1
2022-10-14T17:40:54.317Z,1345.1
2022-10-14T17:42:37.665Z,1342
2022-10-14T17:44:21.079Z,1340.7
2022-10-14T17:46:04.450Z,1336.8
2022-10-14T17:47:48.200Z,1334
2022-10-14T17:49:31.553Z,1330.7
2022-10-14T17:51:14.958Z,1326.2
2022-10-14T17:52:58.415Z,1322.6
2022-10-14T17:54:41.741Z,1319.5
2022-10-14T17:56:25.158Z,1316.1
2022-10-14T17:58:08.532Z,1312.2
2022-10-14T17:59:51.928Z,1312
2022-10-14T18:03:18.491Z,1309.9
2022-10-14T18:05:01.785Z,1309.2
2022-10-14T18:06:45.204Z,1311.8
2022-10-14T18:08:28.585Z,1314.2
2022-10-14T18:10:12.030Z,1308.5
2022-10-14T18:11:55.409Z,1301.6
2022-10-14T18:13:38.819Z,1299.8
2022-10-14T18:15:22.171Z,1295.2
2022-10-14T18:17:05.875Z,1289.8
2022-10-14T18:18:49.292Z,1289
2022-10-14T18:20:32.735Z,1283.6
2022-10-14T18:22:16.085Z,1279.5
2022-10-14T18:23:59.498Z,1279.3
2022-10-14T18:25:42.860Z,1275.4
2022-10-14T18:27:26.258Z,1273.2
2022-10-14T18:29:09.697Z,1269.7
2022-10-14T18:30:53.375Z,1266.1
2022-10-14T18:32:36.754Z,1263.2
2022-10-14T18:34:20.147Z,1263.1
2022-10-14T18:36:03.584Z,1263.3
2022-10-14T18:37:46.947Z,1264
2022-10-14T18:39:30.348Z,1262.5
2022-10-14T18:41:13.782Z,1260.6
2022-10-14T18:42:57.127Z,1260.4
2022-10-14T18:44:40.840Z,1258.5
2022-10-14T18:46:24.224Z,1254.3
2022-10-14T18:48:07.665Z,1247.1
2022-10-14T18:49:51.022Z,1244.6
2022-10-14T18:51:34.435Z,1242.3
2022-10-14T18:53:17.802Z,1241.5
2022-10-14T18:55:01.205Z,1239.8
2022-10-14T19:00:10.451Z,1232.7
2022-10-14T19:01:53.872Z,1228
2022-10-14T19:03:37.229Z,1226.2
2022-10-14T19:05:20.655Z,1219.7
2022-10-14T19:07:04.096Z,1216.1
2022-10-14T19:08:47.435Z,1218.8
2022-10-14T19:10:30.853Z,1215.8
2022-10-14T19:13:57.296Z,1205.1
2022-10-14T19:15:40.699Z,1206.2
2022-10-14T19:17:24.121Z,1205.2
2022-10-14T19:19:07.522Z,1201.4
2022-10-14T19:20:50.897Z,1199.3
2022-10-14T19:22:34.322Z,1197.4
2022-10-14T19:24:17.711Z,1196.7
2022-10-14T19:26:01.109Z,1194
2022-10-14T19:29:27.541Z,1193.4
2022-10-14T19:31:10.940Z,1190.7
2022-10-14T19:32:54.364Z,1189.2
2022-10-14T19:34:37.750Z,1186.3
2022-10-14T19:36:21.124Z,1183.2
2022-10-14T19:38:04.593Z,1178.8
2022-10-14T19:39:47.946Z,1177.1
2022-10-14T19:41:31.328Z,1177.4
2022-10-14T19:43:15.013Z,1176.1
2022-10-14T19:44:58.448Z,1177.7
2022-10-14T19:46:41.802Z,1171.2
2022-10-14T19:48:25.213Z,1164.3
2022-10-14T19:50:08.649Z,1162.4
2022-10-14T19:51:51.986Z,1160.8
2022-10-14T19:53:35.409Z,1159.2
2022-10-14T19:55:18.870Z,1161.7
2022-10-14T19:58:45.258Z,1162.3
2022-10-14T20:00:28.710Z,1160.2
2022-10-14T20:02:12.061Z,1156.8
2022-10-14T20:03:55.473Z,1154
2022-10-14T20:05:38.836Z,1152.3
2022-10-14T20:07:22.251Z,1148.6
2022-10-14T20:09:05.713Z,1144.8
2022-10-14T20:10:49.064Z,1143.7
2022-10-14T20:14:15.502Z,1141.6
2022-10-14T20:15:59.001Z,1143.1
2022-10-14T20:17:42.375Z,1138.7
2022-10-14T20:19:25.707Z,1134.8
2022-10-14T20:21:09.080Z,1129.5
2022-10-14T20:22:52.501Z,1127.3
2022-10-14T20:24:35.921Z,1124.5
2022-10-14T20:26:19.287Z,1121.6
2022-10-14T20:29:45.764Z,1115.6
2022-10-14T20:31:29.190Z,1111.6
2022-10-14T20:33:12.555Z,1110.2
2022-10-14T20:34:55.959Z,1112.3
2022-10-14T20:36:39.327Z,1112.7
2022-10-14T20:38:22.736Z,1112.6
2022-10-14T20:40:06.160Z,1106.1
2022-10-14T20:41:49.538Z,1106.4
2022-10-14T20:43:33.281Z,1104
2022-10-14T20:45:16.627Z,1099.1
2022-10-14T20:47:00.047Z,1095.2
2022-10-14T20:48:43.417Z,1096.6
2022-10-14T20:50:26.824Z,1096
2022-10-14T20:52:10.248Z,1093.5
2022-10-14T20:53:53.611Z,1093.4
2022-10-14T20:55:37.041Z,1092.5
2022-10-14T20:59:03.526Z,1084.8
2022-10-14T21:00:46.861Z,1081.6
2022-10-14T21:02:30.289Z,1080.8
2022-10-14T21:04:13.657Z,1081.7
2022-10-14T21:05:57.061Z,1081.8
2022-10-14T21:07:40.497Z,1075.8
2022-10-14T21:09:23.858Z,1071.2
2022-10-14T21:11:07.271Z,1068.5
2022-10-14T21:14:33.741Z,1064.1
2022-10-14T21:16:17.152Z,1062.2
2022-10-14T21:18:00.536Z,1061.8
2022-10-14T21:19:43.907Z,1059.8
2022-10-14T21:21:27.312Z,1059.1
2022-10-14T21:23:10.741Z,1058.3
2022-10-14T21:24:54.100Z,1056
2022-10-14T21:30:03.376Z,1058
2022-10-14T21:31:46.801Z,1062
2022-10-14T21:33:30.180Z,1066.2
2022-10-14T21:35:13.517Z,1073.2
2022-10-14T21:36:56.963Z,1086.7
2022-10-14T21:38:40.357Z,1091.4
2022-10-14T21:40:23.702Z,1096.6
2022-10-14T21:42:07.177Z,1096.1
2022-10-14T21:43:50.831Z,1099
2022-10-14T21:45:34.265Z,1107
2022-10-14T21:47:17.601Z,1107
2022-10-14T21:49:01.041Z,1106.1
2022-10-14T21:50:44.386Z,1096
2022-10-14T21:52:27.791Z,1089.8
2022-10-14T21:54:11.242Z,1086.7
2022-10-14T21:55:54.577Z,1083.7
2022-10-14T21:57:38.291Z,1079.6
2022-10-14T21:59:21.681Z,1078.5
2022-10-14T22:01:05.122Z,1077
2022-10-14T22:02:48.464Z,1073.5
2022-10-14T22:04:31.878Z,1073.8
2022-10-14T22:06:15.319Z,1076.2
2022-10-14T22:07:58.664Z,1077.4
2022-10-14T22:09:42.075Z,1079.2
2022-10-14T22:13:08.523Z,1091.4
2022-10-14T22:14:51.945Z,1098.4
2022-10-14T22:16:35.366Z,1103.7
2022-10-14T22:18:18.711Z,1107
2022-10-14T22:20:02.129Z,1108.1
2022-10-14T22:21:45.561Z,1106.7
2022-10-14T22:23:28.911Z,1105
2022-10-14T22:25:12.331Z,1104.1
2022-10-14T22:28:38.776Z,1101.8
2022-10-14T22:30:22.173Z,1100.7
2022-10-14T22:32:05.610Z,1100.2
2022-10-14T22:33:48.963Z,1099.4
2022-10-14T22:35:32.394Z,1097.5
2022-10-14T22:37:15.812Z,1095.3
2022-10-14T22:38:59.176Z,1092.6
2022-10-14T22:40:42.585Z,1089.1
2022-10-14T22:44:09.016Z,1080.9
2022-10-14T22:45:52.413Z,1075.1
2022-10-14T22:47:35.853Z,1073.4
2022-10-14T22:49:19.210Z,1070.7
2022-10-14T22:51:02.618Z,1068
2022-10-14T22:52:46.000Z,1065.6
2022-10-14T22:54:29.400Z,1063.1
2022-10-14T22:56:12.827Z,1059.5
2022-10-14T23:01:22.059Z,1048.7
2022-10-14T23:03:05.419Z,1044.4
2022-10-14T23:04:48.827Z,1043.8
2022-10-14T23:06:32.266Z,1043.1
2022-10-14T23:08:15.619Z,1041.3
2022-10-14T23:09:59.046Z,1039.2
2022-10-14T23:11:42.476Z,1037.2
2022-10-14T23:13:25.808Z,1033.7
2022-10-14T23:15:09.502Z,1031.3
2022-10-14T23:16:52.914Z,1030.8
2022-10-14T23:18:36.348Z,1030
2022-10-14T23:20:19.701Z,1031
2022-10-14T23:22:03.116Z,1031
2022-10-14T23:23:46.491Z,1026.6
2022-10-14T23:25:29.904Z,1020.8
2022-10-14T23:27:13.314Z,1018.3
2022-10-14T23:28:56.993Z,1015.9
2022-10-14T23:30:40.441Z,1016.1
2022-10-14T23:32:23.769Z,1015
2022-10-14T23:34:07.203Z,1013
2022-10-14T23:35:50.569Z,1010.2
2022-10-14T23:37:33.976Z,1009
2022-10-14T23:39:17.416Z,1007.1
2022-10-14T23:41:00.745Z,1004.7
2022-10-14T23:42:44.516Z,1002.1
2022-10-14T23:44:27.850Z,1002.3
2022-10-14T23:46:11.321Z,1000.4
2022-10-14T23:47:54.689Z,995.1
2022-10-14T23:49:38.045Z,993.5
2022-10-14T23:51:21.483Z,990.7
2022-10-14T23:53:04.855Z,992
2022-10-14T23:54:48.274Z,993.3
2022-10-14T23:56:31.954Z,993.7
2022-10-14T23:58:15.383Z,992.6
2022-10-14T23:59:58.753Z,991.1
